Manchester, CA

3:27 AM PDT on September 19, 2014 (GMT -0700)
APRSWXNET Manchester CA US | Change Station
CLOSE
Current Station
Personal Weather Station
Location: Manchester, CA
Elevation: 2125 ft
Nearby Weather Stations

Elev 2125 ft 38.96 °N, 123.54 °W | Updated 23 minutes ago

Overcast
Overcast
57.0 °F
Feels Like 57.0 °F
N
0.0
Wind Variable Wind from NE
Gusts 0.0 mph

Today
High -- | Low -- °F
--% Chance of Precip.
Yesterday
High -- | Low -- °F
Precip. -- in
6:59 AM 7:15 PM
Waning Crescent, 20% visible
Pressure 29.90 in
Visibility 10.0 miles
Clouds Overcast 1800 ft
Dew Point 56.0 °F
Humidity 98%
Rainfall -999.00 in
Snow Depth 1 in , 0 in , 0 in
UV 0 out of 12
Pollen 5.00 out of 12
Air Quality Not available.
Flu Activity Not available.
METAR KUKI 190956Z AUTO 19003KT 10SM OVC018 18/15 A2992 RMK AO2 SLP123 T01780150

More Conditions Fewer Conditions

Pressure 29.90 in
Visibility 10.0 miles
Clouds Overcast 1800 ft
Dew Point 56.0 °F
Humidity 98%
Rainfall -999.00 in
Snow Depth 1 in , 0 in , 0 in
UV 0 out of 12
Pollen 5.00 out of 12
Air Quality Not available.
Flu Activity Not available.
METAR KUKI 190956Z AUTO 19003KT 10SM OVC018 18/15 A2992 RMK AO2 SLP123 T01780150

More Conditions Fewer Conditions

10-Day Weather Forecast

Almanac

Astronomy

Sep. 19, 2014 Rise Set
Actual Time 6:59 AM PDT 7:15 PM PDT
Civil Twilight 6:32 AM PDT 7:42 PM PDT
Nautical Twilight 6:01 AM PDT 8:13 PM PDT
Astronomical Twilight 5:29 AM PDT 8:45 PM PDT
Moon 2:51 AM PDT 4:46 PM PDT
Length of Visible Light 13h 09m
Length of Day
12h 16m
Tomorrow will be 2m 31s shorter.
Waning Crescent, 20% of the Moon is Illuminated
Today
Waning Crescent
Sep 24
New
Oct 1
First Quarter
Oct 8
Full
Oct 15
Last Quarter

Today's Extremes

State Highs State Lows

Community

WunderPhotos

Upload Photos

1,754,583 photos uploaded!

Nearby

Snow Depth

Station Depth Elevation
Spratt Creek 1 in 6200 ft
Crowder Flat 0 in 5100 ft
Blue Lakes 0 in 8000 ft
Leavitt Meadows 0 in 7200 ft
Adin Mountain 2 in 6200 ft

Earthquake Activity

City Distance Mag. Time & Date
The Geysers, California 46 miles 2.5 11:29 PM PDT
2014-09-17
Cobb, California 45 miles 2.7 1:23 PM PDT
2014-09-16
Minimum magnitude displayed is 2.5.

Coastal Water Temperatures

Place Temperature
Arena Cove, CA 62.1 °F
North Spit, CA 59.0 °F
Point Reyes, CA 64.9 °F
San Francisco, CA 64.9 °F
Richmond, CA 68.0 °F

Nearby Weather Stations